createdAt,value
2024-03-12T00:02:08.487Z,100910.50
2024-03-12T00:04:41.976Z,100916.81
2024-03-12T00:07:14.958Z,100913.66
2024-03-12T00:09:48.170Z,100914.06
2024-03-12T00:12:20.797Z,100921.16
2024-03-12T00:14:54.845Z,100924.69
2024-03-12T00:17:27.637Z,100931.41
2024-03-12T00:20:00.750Z,100932.19
2024-03-12T00:22:34.644Z,100925.50
2024-03-12T00:25:09.492Z,100934.16
2024-03-12T00:27:42.247Z,100935.72
2024-03-12T00:30:16.863Z,100940.06
2024-03-12T00:32:50.376Z,100948.34
2024-03-12T00:35:24.847Z,100942.44
2024-03-12T00:37:59.078Z,100949.94
2024-03-12T00:40:34.606Z,100949.94
2024-03-12T00:43:08.503Z,100952.28
2024-03-12T00:45:43.491Z,100957.81
2024-03-12T00:48:16.969Z,100953.88
2024-03-12T00:50:49.580Z,100969.63
2024-03-12T00:53:22.221Z,100963.31
2024-03-12T00:55:55.367Z,100969.63
2024-03-12T00:58:29.605Z,100975.53
2024-03-12T01:01:04.985Z,100974.34
2024-03-12T01:03:38.143Z,100977.53
2024-03-12T01:06:12.704Z,100985.38
2024-03-12T01:08:47.364Z,100986.56
2024-03-12T01:11:20.130Z,100987.78
2024-03-12T01:13:54.124Z,100992.47
2024-03-12T01:16:30.098Z,100986.97
2024-03-12T01:19:03.548Z,100988.56
2024-03-12T01:21:36.395Z,100998.81
2024-03-12T01:24:09.660Z,100996.06
2024-03-12T01:26:43.156Z,101005.50
2024-03-12T01:29:17.947Z,101001.56
2024-03-12T01:31:53.584Z,101008.63
2024-03-12T01:34:26.788Z,101009.81
2024-03-12T01:36:59.452Z,101007.88
2024-03-12T01:39:39.740Z,101007.44
2024-03-12T01:42:13.057Z,101012.59
2024-03-12T01:44:46.577Z,101017.72
2024-03-12T01:47:20.762Z,101016.13
2024-03-12T01:49:53.799Z,101017.72
2024-03-12T01:52:26.815Z,101015.34
2024-03-12T01:54:59.551Z,101017.72
2024-03-12T01:57:34.036Z,101020.09
2024-03-12T02:00:11.578Z,101018.47
2024-03-12T02:02:46.755Z,101028.34
2024-03-12T02:05:19.407Z,101031.13
2024-03-12T02:07:54.499Z,101026.38
2024-03-12T02:10:27.439Z,101029.50
2024-03-12T02:13:00.247Z,101034.25
2024-03-12T02:15:35.363Z,101029.50
2024-03-12T02:18:09.952Z,101032.66
2024-03-12T02:20:42.944Z,101037.41
2024-03-12T02:23:15.637Z,101029.47
2024-03-12T02:25:49.655Z,101040.94
2024-03-12T02:28:22.554Z,101034.25
2024-03-12T02:30:55.518Z,101036.63
2024-03-12T02:33:28.438Z,101045.28
2024-03-12T02:36:01.362Z,101046.81
2024-03-12T02:38:37.750Z,101046.81
2024-03-12T02:41:12.301Z,101050.00
2024-03-12T02:43:45.269Z,101049.22
2024-03-12T02:46:18.594Z,101053.13
2024-03-12T02:48:52.713Z,101055.88
2024-03-12T02:51:27.446Z,101053.13
2024-03-12T02:54:00.901Z,101055.47
2024-03-12T02:56:35.061Z,101058.22
2024-03-12T02:59:10.055Z,101055.47
2024-03-12T03:01:42.968Z,101058.22
2024-03-12T03:04:15.660Z,101050.75
2024-03-12T03:06:51.564Z,101046.81
2024-03-12T03:09:24.531Z,101049.97
2024-03-12T03:11:58.688Z,101055.91
2024-03-12T03:14:31.327Z,101051.53
2024-03-12T03:17:04.018Z,101049.19
2024-03-12T03:19:36.790Z,101049.19
2024-03-12T03:22:09.658Z,101050.38
2024-03-12T03:24:42.367Z,101045.66
2024-03-12T03:27:16.713Z,101056.28
2024-03-12T03:29:49.455Z,101053.91
2024-03-12T03:32:24.657Z,101053.91
2024-03-12T03:34:57.314Z,101052.72
2024-03-12T03:37:36.012Z,101055.47
2024-03-12T03:40:11.357Z,101055.47
2024-03-12T03:42:45.732Z,101060.19
2024-03-12T03:45:19.193Z,101063.34
2024-03-12T03:47:52.702Z,101061.78
2024-03-12T03:50:25.912Z,101064.16
2024-03-12T03:52:58.702Z,101056.63
2024-03-12T03:55:32.038Z,101064.53
2024-03-12T03:58:07.583Z,101066.09
2024-03-12T04:00:40.995Z,101067.31
2024-03-12T04:03:14.146Z,101081.09
2024-03-12T04:05:48.420Z,101082.28
2024-03-12T04:08:21.757Z,101081.88
2024-03-12T04:10:54.733Z,101088.16
2024-03-12T04:13:29.087Z,101089.38
2024-03-12T04:16:02.081Z,101082.28
2024-03-12T04:18:37.464Z,101090.53
2024-03-12T04:21:10.383Z,101095.66
2024-03-12T04:23:44.223Z,101098.81
2024-03-12T04:26:17.004Z,101099.59
2024-03-12T04:28:51.061Z,101105.13
2024-03-12T04:31:24.208Z,101106.66
2024-03-12T04:33:57.043Z,101098.81
2024-03-12T04:36:29.809Z,101104.34
2024-03-12T04:39:02.459Z,101108.28
2024-03-12T04:41:35.225Z,101116.94
2024-03-12T04:44:09.293Z,101117.69
2024-03-12T04:46:44.829Z,101116.13
2024-03-12T04:49:17.882Z,101126.41
2024-03-12T04:51:51.754Z,101124.41
2024-03-12T04:54:24.684Z,101127.16
2024-03-12T04:56:58.294Z,101134.59
2024-03-12T04:59:32.369Z,101145.25
2024-03-12T05:02:05.257Z,101142.50
2024-03-12T05:04:38.086Z,101153.16
2024-03-12T05:07:12.993Z,101151.59
2024-03-12T05:09:45.866Z,101146.84
2024-03-12T05:12:18.557Z,101151.97
2024-03-12T05:14:52.590Z,101155.53
2024-03-12T05:17:25.469Z,101161.81
2024-03-12T05:19:58.218Z,101158.69
2024-03-12T05:22:30.899Z,101160.25
2024-03-12T05:25:04.072Z,101166.16
2024-03-12T05:27:39.098Z,101168.13
2024-03-12T05:30:16.418Z,101169.69
2024-03-12T05:32:50.532Z,101173.25
2024-03-12T05:35:24.463Z,101168.91
2024-03-12T05:38:04.991Z,101180.34
2024-03-12T05:40:48.068Z,101176.00
2024-03-12T05:43:50.532Z,101185.06
2024-03-12T05:46:42.614Z,101184.28
2024-03-12T05:49:16.457Z,101185.47
2024-03-12T05:51:49.402Z,101194.88
2024-03-12T05:54:22.534Z,101197.66
2024-03-12T05:56:55.355Z,101204.34
2024-03-12T05:59:28.532Z,101198.81
2024-03-12T06:02:02.640Z,101201.59
2024-03-12T06:04:35.789Z,101212.22
2024-03-12T06:07:08.970Z,101212.63
2024-03-12T06:09:42.011Z,101203.56
2024-03-12T06:12:14.715Z,101206.69
2024-03-12T06:14:47.713Z,101212.22
2024-03-12T06:17:21.846Z,101209.06
2024-03-12T06:19:54.981Z,101212.22
2024-03-12T06:22:27.780Z,101213.75
2024-03-12T06:25:00.822Z,101222.44
2024-03-12T06:27:33.996Z,101219.69
2024-03-12T06:30:07.395Z,101218.91
2024-03-12T06:32:41.493Z,101223.25
2024-03-12T06:35:14.152Z,101223.63
2024-03-12T06:37:46.976Z,101229.16
2024-03-12T06:40:21.875Z,101231.13
2024-03-12T06:42:54.652Z,101229.91
2024-03-12T06:45:27.840Z,101234.25
2024-03-12T06:48:02.759Z,101240.56
2024-03-12T06:50:36.122Z,101239.38
2024-03-12T06:53:08.939Z,101240.97
2024-03-12T06:55:41.768Z,101242.94
2024-03-12T06:58:20.014Z,101250.81
2024-03-12T07:00:53.276Z,101246.88
2024-03-12T07:03:30.216Z,101237.44
2024-03-12T07:06:04.287Z,101244.13
2024-03-12T07:08:40.169Z,101249.63
2024-03-12T07:11:13.345Z,101247.66
2024-03-12T07:13:49.950Z,101250.03
2024-03-12T07:16:22.888Z,101243.72
2024-03-12T07:18:57.152Z,101256.38
2024-03-12T07:21:29.890Z,101253.22
2024-03-12T07:24:05.005Z,101257.13
2024-03-12T07:26:38.482Z,101253.56
2024-03-12T07:29:11.377Z,101255.56
2024-03-12T07:31:44.123Z,101262.63
2024-03-12T07:34:18.766Z,101261.84
2024-03-12T07:36:51.675Z,101268.16
2024-03-12T07:39:32.411Z,101265.78
2024-03-12T07:42:13.501Z,101268.94
2024-03-12T07:44:49.429Z,101281.59
2024-03-12T07:47:22.077Z,101280.81
2024-03-12T07:49:56.209Z,101277.25
2024-03-12T07:52:28.993Z,101285.94
2024-03-12T07:55:03.458Z,101288.69
2024-03-12T07:57:37.097Z,101285.53
2024-03-12T08:00:16.423Z,101291.06
2024-03-12T08:02:49.381Z,101289.53
2024-03-12T08:05:24.645Z,101285.19
2024-03-12T08:07:57.566Z,101294.25
2024-03-12T08:10:30.410Z,101295.03
2024-03-12T08:13:06.402Z,101293.84
2024-03-12T08:15:39.231Z,101299.00
2024-03-12T08:18:17.683Z,101291.50
2024-03-12T08:20:55.740Z,101290.34
2024-03-12T08:23:28.372Z,101289.91
2024-03-12T08:26:02.354Z,101288.75
2024-03-12T08:28:35.837Z,101288.75
2024-03-12T08:31:14.753Z,101294.28
2024-03-12T08:33:56.355Z,101289.16
2024-03-12T08:36:30.476Z,101293.50
2024-03-12T08:39:04.028Z,101292.75
2024-03-12T08:41:36.864Z,101290.44
2024-03-12T08:44:10.615Z,101295.94
2024-03-12T08:46:43.329Z,101298.31
2024-03-12T08:49:16.827Z,101304.63
2024-03-12T08:51:51.641Z,101301.84
2024-03-12T08:54:24.457Z,101303.81
2024-03-12T08:56:57.389Z,101300.69
2024-03-12T08:59:30.540Z,101298.31
2024-03-12T09:02:04.119Z,101294.38
2024-03-12T09:04:36.852Z,101298.31
2024-03-12T09:07:11.108Z,101299.50
2024-03-12T09:09:44.382Z,101296.75
2024-03-12T09:12:17.121Z,101299.09
2024-03-12T09:14:49.767Z,101303.84
2024-03-12T09:17:22.995Z,101300.31
2024-03-12T09:19:55.992Z,101304.28
2024-03-12T09:22:30.053Z,101297.97
2024-03-12T09:25:02.952Z,101310.97
2024-03-12T09:27:36.102Z,101305.09
2024-03-12T09:30:11.283Z,101304.72
2024-03-12T09:32:45.222Z,101298.00
2024-03-12T09:35:19.989Z,101310.25
2024-03-12T09:37:54.091Z,101307.13
2024-03-12T09:40:27.048Z,101321.34
2024-03-12T09:43:01.792Z,101316.63
2024-03-12T09:45:34.737Z,101322.56
2024-03-12T09:48:09.547Z,101324.53
2024-03-12T09:50:43.198Z,101320.22
2024-03-12T09:53:19.120Z,101321.03
2024-03-12T09:55:52.205Z,101313.94
2024-03-12T09:58:25.464Z,101310.44
2024-03-12T10:00:58.169Z,101315.97
2024-03-12T10:03:31.324Z,101312.81
2024-03-12T10:06:04.681Z,101324.25
2024-03-12T10:08:40.190Z,101314.38
2024-03-12T10:11:20.467Z,101314.81
2024-03-12T10:13:58.027Z,101325.13
2024-03-12T10:16:33.921Z,101313.25
2024-03-12T10:19:10.757Z,101308.94
2024-03-12T10:21:46.013Z,101312.13
2024-03-12T10:24:22.872Z,101311.31
2024-03-12T10:27:02.980Z,101305.06
2024-03-12T10:29:36.768Z,101301.09
2024-03-12T10:32:19.640Z,101303.09
2024-03-12T10:34:53.348Z,101307.84
2024-03-12T10:37:26.828Z,101306.66
2024-03-12T10:40:14.331Z,101305.09
2024-03-12T10:42:54.673Z,101306.66
2024-03-12T10:45:28.435Z,101304.69
2024-03-12T10:48:02.303Z,101299.56
2024-03-12T10:50:35.551Z,101294.44
2024-03-12T10:53:09.056Z,101299.97
2024-03-12T10:55:43.745Z,101297.19
2024-03-12T10:58:16.984Z,101294.84
2024-03-12T11:00:50.145Z,101304.31
2024-03-12T11:03:25.235Z,101298.38
2024-03-12T11:06:00.797Z,101302.75
2024-03-12T11:08:33.720Z,101298.38
2024-03-12T11:11:10.237Z,101296.41
2024-03-12T11:13:43.889Z,101300.38
2024-03-12T11:16:19.069Z,101294.03
2024-03-12T11:18:52.299Z,101290.06
2024-03-12T11:21:25.847Z,101299.19
2024-03-12T11:23:59.055Z,101291.25
2024-03-12T11:26:37.031Z,101295.59
2024-03-12T11:29:12.230Z,101282.94
2024-03-12T11:31:45.753Z,101283.75
2024-03-12T11:34:32.888Z,101274.63
2024-03-12T11:37:14.527Z,101278.19
2024-03-12T11:39:47.391Z,101275.81
2024-03-12T11:42:22.027Z,101281.75
2024-03-12T11:44:56.097Z,101278.19
2024-03-12T11:47:33.286Z,101275.00
2024-03-12T11:50:09.036Z,101272.63
2024-03-12T11:52:44.309Z,101273.44
2024-03-12T11:55:42.178Z,101281.31
2024-03-12T11:58:17.424Z,101273.03
2024-03-12T12:00:53.757Z,101275.78
2024-03-12T12:03:26.515Z,101278.13
2024-03-12T12:05:59.544Z,101267.47
2024-03-12T12:08:37.484Z,101269.44
2024-03-12T12:11:12.578Z,101259.94
2024-03-12T12:13:48.680Z,101263.84
2024-03-12T12:16:21.736Z,101254.34
2024-03-12T12:18:54.509Z,101253.16
2024-03-12T12:21:27.180Z,101248.03
2024-03-12T12:24:04.189Z,101255.16
2024-03-12T12:26:40.082Z,101249.59
2024-03-12T12:29:15.882Z,101248.00
2024-03-12T12:31:51.920Z,101249.59
2024-03-12T12:34:26.595Z,101249.59
2024-03-12T12:37:01.166Z,101244.84
2024-03-12T12:39:43.784Z,101244.91
2024-03-12T12:42:25.528Z,101239.41
2024-03-12T12:45:06.193Z,101240.53
2024-03-12T12:47:39.431Z,101246.91
2024-03-12T12:50:12.632Z,101239.03
2024-03-12T12:52:45.345Z,101235.78
2024-03-12T12:55:19.143Z,101238.13
2024-03-12T12:57:59.661Z,101231.81
2024-03-12T13:00:37.575Z,101227.50
2024-03-12T13:03:21.880Z,101215.97
2024-03-12T13:06:12.177Z,101221.50
2024-03-12T13:08:46.138Z,101219.56
2024-03-12T13:11:19.832Z,101218.47
2024-03-12T13:13:52.877Z,101213.34
2024-03-12T13:16:27.234Z,101212.03
2024-03-12T13:19:00.085Z,101216.09
2024-03-12T13:21:34.682Z,101209.75
2024-03-12T13:24:07.619Z,101213.38
2024-03-12T13:26:40.569Z,101211.72
2024-03-12T13:29:13.307Z,101202.59
2024-03-12T13:31:47.885Z,101202.16
2024-03-12T13:34:20.835Z,101202.06
2024-03-12T13:36:54.117Z,101207.59
2024-03-12T13:39:28.250Z,101204.03
2024-03-12T13:42:00.958Z,101200.44
2024-03-12T13:44:33.709Z,101200.06
2024-03-12T13:47:08.109Z,101202.84
2024-03-12T13:49:41.439Z,101200.47
2024-03-12T13:52:14.221Z,101198.53
2024-03-12T13:54:46.993Z,101194.19
2024-03-12T13:57:19.921Z,101194.97
2024-03-12T13:59:52.665Z,101196.97
2024-03-12T14:02:26.856Z,101202.91
2024-03-12T14:05:00.959Z,101200.13
2024-03-12T14:07:36.047Z,101198.16
2024-03-12T14:10:09.766Z,101193.41
2024-03-12T14:12:42.884Z,101193.41
2024-03-12T14:15:17.216Z,101191.03
2024-03-12T14:17:54.099Z,101192.66
2024-03-12T14:20:30.271Z,101185.88
2024-03-12T14:23:03.158Z,101179.19
2024-03-12T14:25:38.026Z,101189.09
2024-03-12T14:28:12.112Z,101177.22
2024-03-12T14:30:46.211Z,101175.25
2024-03-12T14:33:20.917Z,101171.28
2024-03-12T14:35:53.740Z,101175.25
2024-03-12T14:38:26.544Z,101177.59
2024-03-12T14:40:59.308Z,101178.81
2024-03-12T14:43:32.579Z,101168.59
2024-03-12T14:46:05.968Z,101176.44
2024-03-12T14:48:40.191Z,101168.63
2024-03-12T14:51:12.989Z,101169.13
2024-03-12T14:53:45.689Z,101160.72
2024-03-12T14:56:18.553Z,101159.47
2024-03-12T14:58:51.459Z,101163.03
2024-03-12T15:01:24.415Z,101168.56
2024-03-12T15:03:59.341Z,101164.19
2024-03-12T15:06:33.614Z,101157.06
2024-03-12T15:09:06.878Z,101159.53
2024-03-12T15:11:39.709Z,101155.19
2024-03-12T15:14:13.302Z,101154.00
2024-03-12T15:16:47.313Z,101149.25
2024-03-12T15:19:21.642Z,101151.66
2024-03-12T15:21:54.774Z,101153.22
2024-03-12T15:24:27.470Z,101145.44
2024-03-12T15:27:00.212Z,101144.72
2024-03-12T15:29:33.708Z,101147.38
2024-03-12T15:32:07.088Z,101148.84
2024-03-12T15:34:41.225Z,101140.19
2024-03-12T15:37:14.008Z,101137.81
2024-03-12T15:39:46.800Z,101134.66
2024-03-12T15:42:19.785Z,101138.25
2024-03-12T15:44:52.900Z,101137.66
2024-03-12T15:47:25.758Z,101134.50
2024-03-12T15:50:00.047Z,101130.88
2024-03-12T15:52:33.559Z,101118.72
2024-03-12T15:55:09.213Z,101129.75
2024-03-12T15:57:43.389Z,101119.41
2024-03-12T16:00:16.972Z,101112.34
2024-03-12T16:02:52.164Z,101111.28
2024-03-12T16:05:26.384Z,101114.00
2024-03-12T16:08:01.510Z,101113.63
2024-03-12T16:10:34.555Z,101112.53
2024-03-12T16:13:08.407Z,101106.81
2024-03-12T16:15:41.189Z,101108.63
2024-03-12T16:18:13.923Z,101099.06
2024-03-12T16:20:48.283Z,101099.06
2024-03-12T16:23:20.951Z,101098.69
2024-03-12T16:25:53.646Z,101096.69
2024-03-12T16:28:26.641Z,101091.91
2024-03-12T16:30:59.489Z,101087.59
2024-03-12T16:33:32.300Z,101087.22
2024-03-12T16:36:09.776Z,101082.72
2024-03-12T16:38:43.042Z,101087.56
2024-03-12T16:41:16.094Z,101083.66
2024-03-12T16:43:49.025Z,101074.97
2024-03-12T16:46:21.942Z,101080.09
2024-03-12T16:48:54.684Z,101077.69
2024-03-12T16:51:29.187Z,101073.34
2024-03-12T16:54:03.640Z,101074.97
2024-03-12T16:56:38.715Z,101068.63
2024-03-12T16:59:12.145Z,101069.03
2024-03-12T17:01:47.993Z,101060.78
2024-03-12T17:04:21.463Z,101065.09
2024-03-12T17:06:59.211Z,101063.94
2024-03-12T17:09:32.779Z,101055.28
2024-03-12T17:12:06.712Z,101062.00
2024-03-12T17:14:39.835Z,101065.59
2024-03-12T17:17:13.514Z,101065.19
2024-03-12T17:19:46.307Z,101075.06
2024-03-12T17:22:21.583Z,101070.34
2024-03-12T17:24:54.962Z,101079.00
2024-03-12T17:27:30.504Z,101086.53
2024-03-12T17:30:03.551Z,101077.84
2024-03-12T17:32:37.047Z,101073.88
2024-03-12T17:35:12.534Z,101075.09
2024-03-12T17:37:48.593Z,101078.25
2024-03-12T17:40:23.501Z,101075.50
2024-03-12T17:42:56.779Z,101066.03
2024-03-12T17:45:31.332Z,101060.50
2024-03-12T17:48:05.933Z,101065.63
2024-03-12T17:50:39.647Z,101074.75
2024-03-12T17:53:14.104Z,101077.09
2024-03-12T17:55:48.883Z,101075.53
2024-03-12T17:58:23.717Z,101080.69
2024-03-12T18:00:57.864Z,101084.59
2024-03-12T18:03:31.176Z,101077.91
2024-03-12T18:06:07.562Z,101073.53
2024-03-12T18:08:46.962Z,101065.63
2024-03-12T18:11:21.476Z,101070.38
2024-03-12T18:13:54.474Z,101076.31
2024-03-12T18:16:27.210Z,101084.59
2024-03-12T18:19:00.273Z,101079.06
2024-03-12T18:21:33.260Z,101081.06
2024-03-12T18:24:10.380Z,101080.28
2024-03-12T18:26:43.850Z,101086.22
2024-03-12T18:29:17.478Z,101080.69
2024-03-12T18:31:50.427Z,101081.09
2024-03-12T18:34:23.431Z,101075.94
2024-03-12T18:36:56.296Z,101072.78
2024-03-12T18:39:31.734Z,101074.34
2024-03-12T18:42:06.902Z,101078.69
2024-03-12T18:44:39.645Z,101070.41
2024-03-12T18:47:13.223Z,101072.00
2024-03-12T18:49:46.591Z,101077.94
2024-03-12T18:52:19.634Z,101073.97
2024-03-12T18:54:55.005Z,101070.84
2024-03-12T18:57:28.263Z,101070.06
2024-03-12T19:00:02.089Z,101074.38
2024-03-12T19:02:35.414Z,101073.19
2024-03-12T19:05:09.967Z,101067.28
2024-03-12T19:07:44.617Z,101072.03
2024-03-12T19:10:20.170Z,101072.81
2024-03-12T19:12:53.248Z,101069.66
2024-03-12T19:15:34.223Z,101075.19
2024-03-12T19:18:12.872Z,101076.78
2024-03-12T19:20:46.106Z,101078.34
2024-03-12T19:23:19.099Z,101070.47
2024-03-12T19:25:53.141Z,101072.06
2024-03-12T19:28:26.181Z,101073.22
2024-03-12T19:30:59.325Z,101072.06
2024-03-12T19:33:34.235Z,101077.59
2024-03-12T19:36:07.667Z,101084.28
2024-03-12T19:38:40.837Z,101074.03
2024-03-12T19:41:16.236Z,101076.00
2024-03-12T19:43:50.542Z,101077.59
2024-03-12T19:46:23.738Z,101087.06
2024-03-12T19:48:58.313Z,101081.53
2024-03-12T19:51:31.443Z,101087.06
2024-03-12T19:54:06.316Z,101086.69
2024-03-12T19:56:40.585Z,101087.06
2024-03-12T19:59:16.924Z,101086.28
2024-03-12T20:01:50.490Z,101085.91
2024-03-12T20:04:23.378Z,101085.13
2024-03-12T20:06:56.476Z,101077.59
2024-03-12T20:09:30.017Z,101069.72
2024-03-12T20:12:05.276Z,101082.34
2024-03-12T20:14:38.906Z,101079.19
2024-03-12T20:17:11.698Z,101074.47
2024-03-12T20:19:44.412Z,101066.56
2024-03-12T20:22:17.201Z,101074.06
2024-03-12T20:24:50.056Z,101079.19
2024-03-12T20:27:24.393Z,101082.75
2024-03-12T20:29:57.121Z,101086.69
2024-03-12T20:32:30.971Z,101095.00
2024-03-12T20:35:03.898Z,101096.97
2024-03-12T20:37:36.824Z,101103.69
2024-03-12T20:40:12.649Z,101093.81
2024-03-12T20:42:49.617Z,101098.16
2024-03-12T20:45:22.605Z,101097.75
2024-03-12T20:48:00.399Z,101093.41
2024-03-12T20:50:34.827Z,101095.81
2024-03-12T20:53:08.364Z,101093.03
2024-03-12T20:55:41.243Z,101089.50
2024-03-12T20:58:15.803Z,101088.69
2024-03-12T21:00:48.771Z,101086.31
2024-03-12T21:03:22.346Z,101080.78
2024-03-12T21:05:55.173Z,101083.19
2024-03-12T21:08:28.538Z,101078.03
2024-03-12T21:11:01.223Z,101091.47
2024-03-12T21:13:36.045Z,101081.59
2024-03-12T21:16:10.264Z,101086.31
2024-03-12T21:18:44.452Z,101088.69
2024-03-12T21:21:17.596Z,101098.19
2024-03-12T21:23:50.287Z,101094.59
2024-03-12T21:26:25.754Z,101097.38
2024-03-12T21:28:59.853Z,101094.59
2024-03-12T21:31:32.483Z,101098.19
2024-03-12T21:34:07.591Z,101102.91
2024-03-12T21:36:41.765Z,101087.13
2024-03-12T21:39:15.962Z,101096.59
2024-03-12T21:41:48.854Z,101096.59
2024-03-12T21:44:23.107Z,101089.47
2024-03-12T21:46:56.262Z,101093.81
2024-03-12T21:49:29.174Z,101098.97
2024-03-12T21:52:01.878Z,101108.03
2024-03-12T21:54:34.576Z,101101.72
2024-03-12T21:57:08.030Z,101101.31
2024-03-12T21:59:42.458Z,101094.63
2024-03-12T22:02:15.108Z,101101.31
2024-03-12T22:04:47.978Z,101097.38
2024-03-12T22:07:21.170Z,101102.91
2024-03-12T22:09:54.127Z,101092.66
2024-03-12T22:12:27.212Z,101094.22
2024-03-12T22:15:01.193Z,101099.75
2024-03-12T22:17:33.929Z,101105.28
2024-03-12T22:20:07.228Z,101102.50
2024-03-12T22:22:40.507Z,101106.84
2024-03-12T22:25:15.271Z,101096.56
2024-03-12T22:27:48.901Z,101102.88
2024-03-12T22:30:23.139Z,101098.16
2024-03-12T22:32:55.790Z,101098.97
2024-03-12T22:35:29.263Z,101101.69
2024-03-12T22:38:03.472Z,101098.16
2024-03-12T22:40:38.463Z,101107.22
2024-03-12T22:43:11.344Z,101111.56
2024-03-12T22:45:46.022Z,101111.56
2024-03-12T22:48:19.911Z,101111.19
2024-03-12T22:50:53.072Z,101108.41
2024-03-12T22:53:26.428Z,101119.47
2024-03-12T22:55:59.798Z,101118.69
2024-03-12T22:58:33.056Z,101112.75
2024-03-12T23:01:09.498Z,101121.84
2024-03-12T23:03:42.440Z,101114.31
2024-03-12T23:06:15.933Z,101117.06
2024-03-12T23:08:49.532Z,101123.41
2024-03-12T23:11:26.145Z,101123.00
2024-03-12T23:13:58.793Z,101121.81
2024-03-12T23:16:34.128Z,101127.34
2024-03-12T23:19:07.291Z,101127.34
2024-03-12T23:21:40.368Z,101128.13
2024-03-12T23:24:14.622Z,101130.50
2024-03-12T23:26:48.143Z,101125.78
2024-03-12T23:29:21.178Z,101129.69
2024-03-12T23:31:56.192Z,101128.94
2024-03-12T23:34:28.950Z,101118.66
2024-03-12T23:37:04.563Z,101122.59
2024-03-12T23:39:38.382Z,101122.97
2024-03-12T23:42:11.609Z,101124.16
2024-03-12T23:44:46.124Z,101121.03
2024-03-12T23:47:20.154Z,101125.72
2024-03-12T23:49:52.948Z,101128.50
2024-03-12T23:52:25.981Z,101131.69
2024-03-12T23:54:58.832Z,101136.41
2024-03-12T23:57:33.244Z,101142.75
